Time;durP1;ratioP1;P1;durP2;ratioP2;P2;SDS_P1;SDS_P2;PMS_P1;PMS_P2;Temp;Humidity;BMP_temperature;BMP_pressure;BME280_temperature;BME280_humidity;BME280_pressure;Samples;Min_cycle;Max_cycle;Signal;HPM_P1;HPM_P2
2022/11/12 00:01:18;;;;;;;0.10;0.10;;;;;;;5.67;100.00;98068.47;4918187;29;20056;-77
2022/11/12 00:04:22;;;;;;;0.10;0.10;;;;;;;5.62;100.00;98073.50;4916221;29;20156;-78
2022/11/12 00:07:26;;;;;;;0.10;0.10;;;;;;;5.58;100.00;98077.50;4915548;29;20067;-76
2022/11/12 00:10:31;;;;;;;0.10;0.10;;;;;;;5.55;100.00;98076.06;4905646;29;20036;-78
2022/11/12 00:13:36;;;;;;;0.10;0.10;;;;;;;5.53;100.00;98071.94;4917368;29;20048;-76
2022/11/12 00:16:41;;;;;;;0.10;0.10;;;;;;;5.53;100.00;98063.97;4917490;29;20082;-76
2022/11/12 00:19:46;;;;;;;0.10;0.10;;;;;;;5.52;100.00;98068.41;4916645;29;20054;-78
2022/11/12 00:22:50;;;;;;;0.10;0.10;;;;;;;5.50;100.00;98069.59;4915041;29;20380;-76
2022/11/12 00:25:59;;;;;;;0.10;0.10;;;;;;;5.46;100.00;98070.97;4915076;29;20070;-76
2022/11/12 00:29:04;;;;;;;0.10;0.10;;;;;;;5.38;100.00;98074.53;4915543;29;20047;-76
2022/11/12 00:32:08;;;;;;;0.10;0.10;;;;;;;5.36;100.00;98067.72;4913462;29;20079;-75
2022/11/12 00:35:13;;;;;;;0.10;0.10;;;;;;;5.29;100.00;98071.09;4912089;29;20032;-75
2022/11/12 00:38:18;;;;;;;0.10;0.10;;;;;;;5.25;100.00;98072.44;4924614;28;20122;-77
2022/11/12 00:41:22;;;;;;;0.10;0.10;;;;;;;5.19;100.00;98070.47;4914875;29;20075;-77
2022/11/12 00:44:28;;;;;;;0.10;0.10;;;;;;;5.17;100.00;98079.63;4914491;29;20047;-76
2022/11/12 00:47:32;;;;;;;0.10;0.10;;;;;;;5.08;100.00;98073.53;4915808;29;20099;-77
2022/11/12 00:50:37;;;;;;;0.10;0.10;;;;;;;5.03;100.00;98075.88;4915186;29;20526;-76
2022/11/12 00:53:41;;;;;;;0.10;0.10;;;;;;;4.96;100.00;98074.91;4915751;29;20353;-77
2022/11/12 00:56:47;;;;;;;0.10;0.10;;;;;;;4.93;100.00;98086.72;4916288;29;20106;-78
2022/11/12 00:59:51;;;;;;;0.10;0.10;;;;;;;4.86;100.00;98069.00;4914053;29;20130;-76
2022/11/12 01:02:55;;;;;;;0.10;0.10;;;;;;;4.83;100.00;98066.72;4914628;29;20056;-77
2022/11/12 01:06:04;;;;;;;0.10;0.10;;;;;;;4.89;100.00;98069.47;4914118;29;20114;-75
2022/11/12 01:09:09;;;;;;;0.10;0.10;;;;;;;4.94;100.00;98079.56;4914108;29;20051;-77
2022/11/12 01:12:13;;;;;;;0.10;0.10;;;;;;;4.91;100.00;98082.59;4914702;29;20036;-76
2022/11/12 01:15:18;;;;;;;0.10;0.10;;;;;;;4.87;100.00;98086.56;4916613;29;20051;-77
2022/11/12 01:18:22;;;;;;;0.10;0.10;;;;;;;4.91;100.00;98093.19;4916178;29;20052;-75
2022/11/12 01:21:29;;;;;;;0.10;0.10;;;;;;;4.91;100.00;98093.19;4915142;29;20112;-76
2022/11/12 01:24:33;;;;;;;0.10;0.10;;;;;;;4.85;100.00;98077.97;4913996;29;20035;-75
2022/11/12 01:27:38;;;;;;;0.10;0.10;;;;;;;4.83;100.00;98080.78;4917994;29;20051;-76
2022/11/12 01:30:42;;;;;;;0.10;0.10;;;;;;;4.82;100.00;98094.22;4917034;29;20099;-76
2022/11/12 01:33:51;;;;;;;0.10;0.10;;;;;;;4.75;100.00;98084.31;4915338;29;20036;-77
2022/11/12 01:36:55;;;;;;;0.10;0.10;;;;;;;4.70;100.00;98078.69;4916811;29;20507;-77
2022/11/12 01:40:00;;;;;;;0.10;0.10;;;;;;;4.64;100.00;98082.00;4915364;29;20578;-76
2022/11/12 01:43:12;;;;;;;0.10;0.10;;;;;;;4.47;100.00;98073.28;4916980;29;20392;-77
2022/11/12 01:46:21;;;;;;;0.10;0.10;;;;;;;4.53;100.00;98078.91;4915823;29;20035;-77
2022/11/12 01:49:49;;;;;;;0.10;0.10;;;;;;;4.44;100.00;98080.78;4915664;29;20039;-78
2022/11/12 01:53:00;;;;;;;0.10;0.10;;;;;;;4.29;100.00;98075.34;4915983;29;20043;-77
2022/11/12 01:56:06;;;;;;;0.10;0.10;;;;;;;4.31;100.00;98081.28;4915766;29;20047;-78
2022/11/12 01:59:24;;;;;;;0.10;0.10;;;;;;;4.31;100.00;98081.28;4914387;29;20186;-78
2022/11/12 02:02:29;;;;;;;0.10;0.10;;;;;;;4.33;100.00;98084.59;4918525;29;20042;-77
2022/11/12 02:05:36;;;;;;;0.10;0.10;;;;;;;4.36;100.00;98092.22;4920456;29;20068;-77
2022/11/12 02:08:41;;;;;;;0.10;0.10;;;;;;;4.14;100.00;98090.28;4919142;29;20046;-78
2022/11/12 02:11:45;;;;;;;0.10;0.10;;;;;;;4.10;100.00;98099.53;4921697;29;20054;-78
2022/11/12 02:14:49;;;;;;;0.10;0.10;;;;;;;4.03;100.00;98093.25;4917937;29;20040;-78
2022/11/12 02:17:54;;;;;;;0.10;0.10;;;;;;;4.05;100.00;98091.28;4920973;29;20048;-78
2022/11/12 02:21:03;;;;;;;0.10;0.10;;;;;;;3.97;100.00;98092.13;4920142;29;20048;-77
2022/11/12 02:24:11;;;;;;;0.10;0.10;;;;;;;4.01;100.00;98104.03;4919213;29;20111;-78
2022/11/12 02:27:16;;;;;;;0.10;0.10;;;;;;;4.02;100.00;98110.97;4920467;29;20048;-78
2022/11/12 02:30:42;;;;;;;0.10;0.10;;;;;;;4.01;100.00;98106.69;4926194;29;20499;-78
2022/11/12 02:33:47;;;;;;;0.10;0.10;;;;;;;4.00;100.00;98102.38;4923830;29;20082;-78
2022/11/12 02:36:51;;;;;;;0.10;0.10;;;;;;;3.95;100.00;98102.03;4920447;29;20046;-77
2022/11/12 02:39:56;;;;;;;0.10;0.10;;;;;;;3.97;100.00;98108.03;4918291;29;20050;-77
2022/11/12 02:43:00;;;;;;;0.10;0.10;;;;;;;3.98;100.00;98100.91;4919723;29;20057;-77
2022/11/12 02:46:05;;;;;;;0.10;0.10;;;;;;;3.97;100.00;98097.41;4919239;29;20048;-77
2022/11/12 02:49:09;;;;;;;0.10;0.10;;;;;;;3.89;100.00;98097.41;4918117;29;20050;-78
2022/11/12 02:52:14;;;;;;;0.10;0.10;;;;;;;3.90;100.00;98093.78;4919284;29;20076;-77
2022/11/12 02:55:18;;;;;;;0.10;0.10;;;;;;;3.83;100.00;98084.84;4917795;29;20171;-77
2022/11/12 02:58:23;;;;;;;0.10;0.10;;;;;;;3.57;100.00;98088.47;4918379;29;20095;-76
2022/11/12 03:01:28;;;;;;;0.10;0.10;;;;;;;3.58;100.00;98079.56;4918862;29;20321;-78
2022/11/12 03:04:32;;;;;;;0.10;0.10;;;;;;;3.61;100.00;98073.09;4917048;29;20575;-77
2022/11/12 03:07:37;;;;;;;0.10;0.10;;;;;;;3.68;100.00;98075.91;4918379;29;20068;-78
2022/11/12 03:10:41;;;;;;;0.10;0.10;;;;;;;3.77;100.00;98077.56;4917506;29;20043;-76
2022/11/12 03:13:46;;;;;;;0.10;0.10;;;;;;;3.82;100.00;98069.94;4917146;29;20038;-78
2022/11/12 03:16:50;;;;;;;0.10;0.10;;;;;;;3.84;100.00;98063.47;4918995;29;20043;-77
2022/11/12 03:19:55;;;;;;;0.13;0.13;;;;;;;3.87;100.00;98064.97;4917766;29;20126;-77
2022/11/12 03:23:03;;;;;;;0.10;0.10;;;;;;;3.84;100.00;98058.19;4918924;29;20130;-76
2022/11/12 03:26:07;;;;;;;0.10;0.10;;;;;;;3.90;100.00;98072.59;4905391;29;20032;-77
2022/11/12 03:29:12;;;;;;;0.10;0.10;;;;;;;3.92;100.00;98068.78;4920255;29;20047;-76
2022/11/12 03:32:17;;;;;;;0.10;0.10;;;;;;;3.81;100.00;98058.53;4929830;29;20054;-78
2022/11/12 03:35:22;;;;;;;0.20;0.20;;;;;;;3.75;100.00;98059.19;4928599;29;20398;-78
2022/11/12 03:38:26;;;;;;;0.20;0.20;;;;;;;3.70;100.00;98061.50;4921027;29;20040;-77
2022/11/12 03:41:31;;;;;;;0.10;0.10;;;;;;;3.67;100.00;98064.50;4919149;29;20059;-78
2022/11/12 03:44:35;;;;;;;0.10;0.10;;;;;;;3.64;100.00;98060.34;4917664;29;20130;-77
2022/11/12 03:47:45;;;;;;;0.10;0.10;;;;;;;3.66;100.00;98059.34;4927336;28;20050;-78
2022/11/12 03:50:50;;;;;;;0.10;0.10;;;;;;;3.58;100.00;98068.97;4916137;29;20079;-76
2022/11/12 03:53:55;;;;;;;0.10;0.10;;;;;;;3.46;100.00;98057.03;4918555;29;20090;-77
2022/11/12 03:56:59;;;;;;;0.10;0.10;;;;;;;3.51;100.00;98062.66;4917578;29;20098;-77
2022/11/12 04:00:08;;;;;;;0.10;0.10;;;;;;;3.59;100.00;98064.50;4915726;29;20058;-76
2022/11/12 04:03:12;;;;;;;0.10;0.10;;;;;;;3.70;100.00;98066.78;4914899;29;21788;-76
2022/11/12 04:09:42;;;;;;;0.10;0.10;;;;;;;3.84;100.00;98044.13;4915632;29;20040;-76
2022/11/12 04:22:59;;;;;;;0.10;0.10;;;;;;;3.91;100.00;98029.22;4915807;29;20055;-75
2022/11/12 04:32:55;;;;;;;0.10;0.10;;;;;;;3.84;100.00;98039.66;4916049;29;20518;-76
2022/11/12 04:35:59;;;;;;;0.10;0.10;;;;;;;3.79;100.00;98038.50;4915280;29;20074;-75
2022/11/12 04:39:04;;;;;;;0.10;0.10;;;;;;;3.77;100.00;98024.59;4915495;29;20083;-75
2022/11/12 04:45:33;;;;;;;0.10;0.10;;;;;;;4.14;100.00;98032.81;4917356;29;20127;-76
2022/11/12 04:48:37;;;;;;;0.10;0.10;;;;;;;4.69;100.00;98026.66;4915865;29;20034;-76
2022/11/12 04:55:06;;;;;;;0.10;0.10;;;;;;;4.97;100.00;98036.75;4914893;29;20696;-77
2022/11/12 04:58:10;;;;;;;0.10;0.10;;;;;;;5.06;100.00;98035.75;4915094;29;20431;-77
2022/11/12 05:01:14;;;;;;;0.10;0.10;;;;;;;5.11;100.00;98020.09;4914710;29;20039;-75
2022/11/12 05:04:19;;;;;;;0.10;0.10;;;;;;;5.14;100.00;98027.72;4915814;29;20048;-76
2022/11/12 05:07:23;;;;;;;0.10;0.10;;;;;;;5.07;100.00;98018.81;4917517;29;20078;-76
2022/11/12 05:10:29;;;;;;;0.10;0.10;;;;;;;5.02;100.00;98021.16;4920170;29;20665;-76
2022/11/12 05:13:33;;;;;;;0.10;0.10;;;;;;;5.06;100.00;98022.47;4917169;29;20074;-77
2022/11/12 05:16:38;;;;;;;0.10;0.10;;;;;;;5.12;100.00;98015.63;4917782;29;20510;-76
2022/11/12 05:19:42;;;;;;;0.20;0.20;;;;;;;5.04;100.00;98013.84;4916094;29;20047;-75
2022/11/12 05:22:47;;;;;;;0.10;0.10;;;;;;;4.97;100.00;98013.72;4917791;29;20044;-76
2022/11/12 05:25:51;;;;;;;0.10;0.10;;;;;;;4.99;100.00;98017.03;4918419;29;20114;-76
2022/11/12 05:28:55;;;;;;;0.15;0.15;;;;;;;4.94;100.00;98016.72;4916419;29;20051;-75
2022/11/12 05:32:00;;;;;;;0.10;0.10;;;;;;;4.98;100.00;98022.50;4916522;29;20040;-76
2022/11/12 05:35:04;;;;;;;0.20;0.20;;;;;;;4.93;100.00;98009.78;4915314;29;20032;-77
2022/11/12 05:38:09;;;;;;;0.10;0.10;;;;;;;4.88;100.00;98017.41;4919717;29;20050;-76
2022/11/12 05:41:13;;;;;;;0.10;0.10;;;;;;;4.82;100.00;98007.50;4922545;29;20138;-76
2022/11/12 05:44:18;;;;;;;0.10;0.10;;;;;;;4.82;100.00;98022.59;4927419;28;20047;-76
2022/11/12 05:47:23;;;;;;;0.10;0.10;;;;;;;4.72;100.00;98013.03;4919888;29;20498;-77
2022/11/12 05:50:27;;;;;;;0.10;0.10;;;;;;;4.72;100.00;98026.28;4921190;29;20042;-77
2022/11/12 05:53:31;;;;;;;0.10;0.10;;;;;;;4.78;100.00;98034.56;4920693;29;20139;-76
2022/11/12 05:56:37;;;;;;;0.10;0.10;;;;;;;4.80;100.00;98027.25;4921404;29;20126;-75
2022/11/12 05:59:41;;;;;;;0.10;0.10;;;;;;;4.82;100.00;98027.91;4920447;29;20322;-76
2022/11/12 06:02:46;;;;;;;0.43;0.15;;;;;;;4.84;100.00;98032.03;4918511;29;20452;-76
2022/11/12 06:05:51;;;;;;;0.10;0.10;;;;;;;4.85;100.00;98031.03;4920902;29;20502;-76
2022/11/12 06:08:55;;;;;;;0.20;0.20;;;;;;;4.84;100.00;98033.88;4921332;29;20075;-76
2022/11/12 06:12:01;;;;;;;0.10;0.10;;;;;;;4.88;100.00;98045.78;4919235;29;20491;-76
2022/11/12 06:15:06;;;;;;;0.10;0.10;;;;;;;4.82;100.00;98030.53;4920515;29;20047;-76
2022/11/12 06:18:11;;;;;;;0.10;0.10;;;;;;;4.71;100.00;98031.78;4919017;29;20212;-78
2022/11/12 06:21:18;;;;;;;0.10;0.10;;;;;;;4.57;100.00;98038.63;4920930;29;20645;-78
2022/11/12 06:24:23;;;;;;;0.20;0.20;;;;;;;4.48;100.00;98037.00;4919596;29;20110;-76
2022/11/12 06:27:27;;;;;;;0.10;0.10;;;;;;;4.39;100.00;98040.69;4917708;29;20629;-77
2022/11/12 06:30:31;;;;;;;0.10;0.10;;;;;;;4.35;100.00;98045.50;4920410;29;20229;-77
2022/11/12 06:33:37;;;;;;;0.20;0.20;;;;;;;4.25;100.00;98041.38;4919551;29;20046;-77
2022/11/12 06:36:41;;;;;;;0.20;0.20;;;;;;;4.14;100.00;98042.59;4920849;29;20122;-77
2022/11/12 06:39:45;;;;;;;0.20;0.20;;;;;;;4.37;100.00;98045.34;4920567;29;20640;-76
2022/11/12 06:42:55;;;;;;;0.10;0.10;;;;;;;4.57;100.00;98054.53;4919693;29;20062;-77
2022/11/12 06:46:01;;;;;;;0.20;0.20;;;;;;;4.70;100.00;98046.84;4930524;28;20450;-76
2022/11/12 06:49:06;;;;;;;0.10;0.10;;;;;;;4.86;100.00;98053.09;4918967;29;20396;-77
2022/11/12 06:52:10;;;;;;;0.17;0.17;;;;;;;4.93;100.00;98056.69;4920595;29;20040;-77
2022/11/12 06:55:14;;;;;;;0.20;0.20;;;;;;;4.95;100.00;98057.34;4919915;29;20500;-78
2022/11/12 06:58:19;;;;;;;0.10;0.10;;;;;;;4.95;100.00;98058.16;4922987;29;20662;-78
2022/11/12 07:01:23;;;;;;;0.10;0.10;;;;;;;4.99;100.00;98059.50;4919996;29;20040;-79
2022/11/12 07:04:28;;;;;;;0.10;0.10;;;;;;;4.98;100.00;98060.50;4921193;29;20103;-78
2022/11/12 07:07:32;;;;;;;0.17;0.17;;;;;;;4.98;100.00;98041.91;4920914;29;20427;-77
2022/11/12 07:10:36;;;;;;;0.20;0.20;;;;;;;5.06;100.00;98056.13;4920740;29;20124;-78
2022/11/12 07:13:43;;;;;;;0.10;0.10;;;;;;;5.17;100.00;98051.25;4919223;29;20039;-77
2022/11/12 07:16:47;;;;;;;0.10;0.10;;;;;;;5.23;100.00;98058.53;4920919;29;20130;-78
2022/11/12 07:19:52;;;;;;;0.10;0.10;;;;;;;5.29;100.00;98057.81;4921651;29;20915;-78
2022/11/12 07:22:59;;;;;;;0.10;0.10;;;;;;;5.34;100.00;98061.75;4920514;29;20126;-79
2022/11/12 07:26:06;;;;;;;0.10;0.10;;;;;;;5.37;100.00;98061.41;4921077;29;20102;-77
2022/11/12 07:29:10;;;;;;;0.10;0.10;;;;;;;5.43;100.00;98060.69;4918835;29;20134;-77
2022/11/12 07:32:15;;;;;;;0.10;0.10;;;;;;;5.47;100.00;98068.16;4920463;29;20067;-77
2022/11/12 07:35:20;;;;;;;0.10;0.10;;;;;;;5.50;100.00;98061.63;4920040;29;20043;-77
2022/11/12 07:38:25;;;;;;;0.10;0.10;;;;;;;5.56;100.00;98066.25;4908862;29;20749;-76
2022/11/12 07:41:29;;;;;;;0.10;0.10;;;;;;;5.59;100.00;98065.88;4920595;29;20518;-76
2022/11/12 07:44:34;;;;;;;0.10;0.10;;;;;;;5.60;100.00;98056.91;4918773;29;20172;-76
2022/11/12 07:47:38;;;;;;;0.10;0.10;;;;;;;5.62;100.00;98062.06;4921049;29;20162;-78
2022/11/12 07:50:43;;;;;;;0.10;0.10;;;;;;;5.61;100.00;98055.94;4923295;29;20036;-78
2022/11/12 07:53:48;;;;;;;0.10;0.10;;;;;;;5.59;100.00;98061.41;4920077;29;20406;-77
2022/11/12 07:56:53;;;;;;;0.10;0.10;;;;;;;5.50;100.00;98065.13;4920857;29;20095;-76
2022/11/12 07:59:58;;;;;;;0.10;0.10;;;;;;;5.48;100.00;98066.31;4919774;29;20428;-76
2022/11/12 08:03:02;;;;;;;0.10;0.10;;;;;;;5.45;100.00;98064.84;4918720;29;20047;-76
2022/11/12 08:06:06;;;;;;;0.10;0.10;;;;;;;5.46;100.00;98071.81;4917722;29;20047;-76
2022/11/12 08:09:11;;;;;;;0.10;0.10;;;;;;;5.44;100.00;98068.47;4919208;29;20446;-78
2022/11/12 08:12:16;;;;;;;0.10;0.10;;;;;;;5.39;100.00;98070.03;4907149;29;20046;-77
2022/11/12 08:15:21;;;;;;;0.10;0.10;;;;;;;5.42;100.00;98082.94;4919718;29;20048;-78
2022/11/12 08:18:26;;;;;;;0.10;0.10;;;;;;;5.41;100.00;98083.94;4918493;29;20052;-79
2022/11/12 08:21:33;;;;;;;0.20;0.20;;;;;;;5.44;100.00;98080.94;4918547;29;20047;-79
2022/11/12 08:24:38;;;;;;;0.10;0.10;;;;;;;5.47;100.00;98084.06;4921306;29;20067;-78
2022/11/12 08:27:42;;;;;;;0.10;0.10;;;;;;;5.63;100.00;98085.78;4932551;28;20550;-78
2022/11/12 08:30:46;;;;;;;0.10;0.10;;;;;;;5.77;100.00;98078.88;4921617;29;20079;-78
2022/11/12 08:33:51;;;;;;;0.10;0.10;;;;;;;5.90;100.00;98080.91;4920856;29;20106;-78
2022/11/12 08:36:55;;;;;;;0.10;0.10;;;;;;;6.00;100.00;98084.19;4921533;29;20093;-78
2022/11/12 08:40:00;;;;;;;0.10;0.10;;;;;;;6.13;100.00;98079.91;4921623;29;20483;-78
2022/11/12 08:43:07;;;;;;;0.10;0.10;;;;;;;6.34;100.00;98086.34;4928694;28;20079;-78
2022/11/12 08:46:12;;;;;;;0.20;0.20;;;;;;;6.48;100.00;98082.88;4918990;29;20094;-77
2022/11/12 08:49:16;;;;;;;0.20;0.20;;;;;;;6.68;100.00;98083.97;4919570;29;20604;-77
2022/11/12 08:52:21;;;;;;;0.10;0.10;;;;;;;6.79;100.00;98089.84;4908922;29;20047;-78
2022/11/12 08:55:25;;;;;;;0.20;0.20;;;;;;;6.94;100.00;98085.34;4920266;29;20110;-78
2022/11/12 08:58:30;;;;;;;0.10;0.10;;;;;;;7.09;100.00;98083.47;4918777;29;20356;-79
2022/11/12 09:01:34;;;;;;;0.10;0.10;;;;;;;7.22;100.00;98078.28;4908847;29;20051;-79
2022/11/12 09:04:39;;;;;;;0.10;0.10;;;;;;;7.47;100.00;98064.59;4919474;29;20062;-79
2022/11/12 09:07:43;;;;;;;0.10;0.10;;;;;;;7.73;100.00;98074.72;4918697;29;20035;-79
2022/11/12 09:10:48;;;;;;;0.20;0.20;;;;;;;7.97;100.00;98068.97;4920159;29;20526;-79
2022/11/12 09:13:54;;;;;;;0.20;0.20;;;;;;;8.35;100.00;98069.50;4924757;29;20039;-79
2022/11/12 09:16:58;;;;;;;0.10;0.10;;;;;;;8.86;100.00;98063.81;4923891;29;20093;-79
2022/11/12 09:20:03;;;;;;;0.10;0.10;;;;;;;9.52;100.00;98059.75;4895716;28;20467;-80
2022/11/12 09:23:31;;;;;;;0.20;0.20;;;;;;;10.29;100.00;98049.31;4922195;29;20047;-80
2022/11/12 09:26:36;;;;;;;0.20;0.20;;;;;;;11.49;100.00;98065.75;4923356;29;20055;-78
2022/11/12 09:29:40;;;;;;;0.20;0.20;;;;;;;12.26;100.00;98061.09;4925153;29;20369;-78
2022/11/12 09:32:44;;;;;;;0.20;0.20;;;;;;;12.71;100.00;98053.63;4925228;29;20079;-79
2022/11/12 09:35:50;;;;;;;0.22;0.22;;;;;;;13.14;100.00;98052.72;4924513;29;20086;-78
2022/11/12 09:38:54;;;;;;;0.20;0.20;;;;;;;13.11;100.00;98050.50;4922243;29;20067;-79
2022/11/12 09:42:04;;;;;;;0.20;0.20;;;;;;;13.30;100.00;98051.28;4925732;29;20609;-79
2022/11/12 09:45:29;;;;;;;0.28;0.28;;;;;;;14.51;100.00;98046.56;4923836;29;20047;-79
2022/11/12 09:48:43;;;;;;;0.20;0.20;;;;;;;15.00;100.00;98046.00;4928479;29;20044;-78
2022/11/12 09:52:13;;;;;;;0.20;0.20;;;;;;;14.82;100.00;98048.03;4914911;29;20067;-78
2022/11/12 09:55:29;;;;;;;0.20;0.20;;;;;;;15.48;100.00;98052.06;4921943;29;20079;-79
2022/11/12 09:58:34;;;;;;;0.20;0.20;;;;;;;15.23;100.00;98058.59;4927407;29;20432;-79
2022/11/12 10:01:47;;;;;;;0.20;0.20;;;;;;;15.68;100.00;98057.06;4909643;29;20126;-79
2022/11/12 10:05:13;;;;;;;0.10;0.10;;;;;;;16.60;96.76;98048.56;4925439;29;20043;-80
2022/11/12 10:08:33;;;;;;;0.10;0.10;;;;;;;17.11;94.07;98043.84;4925020;29;20047;-80
2022/11/12 10:19:25;;;;;;;0.17;0.17;;;;;;;18.42;85.10;98040.81;4899507;28;20082;-79
2022/11/12 10:22:43;;;;;;;0.30;0.30;;;;;;;17.93;87.17;98030.16;4923864;28;20327;-77
2022/11/12 10:25:56;;;;;;;0.17;0.17;;;;;;;18.52;80.46;98037.34;4924197;29;20187;-78
2022/11/12 10:29:09;;;;;;;0.10;0.10;;;;;;;18.53;80.05;98036.28;4923867;29;20051;-78
2022/11/12 10:32:15;;;;;;;0.10;0.10;;;;;;;19.40;72.55;98021.25;4922112;29;20043;-78
2022/11/12 10:35:22;;;;;;;0.10;0.10;;;;;;;19.63;72.95;98037.09;4921861;29;20487;-79
2022/11/12 10:38:27;;;;;;;0.10;0.10;;;;;;;19.62;79.66;98021.88;4921789;29;20083;-78
2022/11/12 10:41:32;;;;;;;0.10;0.10;;;;;;;18.83;74.91;98022.94;4921698;29;20123;-79
2022/11/12 10:44:42;;;;;;;0.10;0.10;;;;;;;18.41;82.22;98020.22;4921311;29;20435;-80
2022/11/12 10:47:46;;;;;;;0.10;0.10;;;;;;;16.62;95.29;98031.03;4921306;29;20071;-80
2022/11/12 10:52:27;;;;;;;0.10;0.10;;;;;;;14.47;100.00;98033.56;4986567;27;1289482;-81
2022/11/12 10:55:34;;;;;;;0.10;0.10;;;;;;;14.18;100.00;98031.78;5048834;28;20345;-78
2022/11/12 10:58:09;;;;;;;0.10;0.10;;;;;;;13.63;100.00;98024.78;2404511;22;20231;-79
2022/11/12 11:04:15;;;;;;;0.10;0.10;;;;;;;13.04;100.00;98015.63;5005727;23;20065;-81
2022/11/12 11:07:24;;;;;;;0.13;0.13;;;;;;;13.01;100.00;98021.47;4999847;28;20050;-81
2022/11/12 11:10:34;;;;;;;0.10;0.10;;;;;;;13.10;100.00;98008.53;4996979;28;20485;-79
2022/11/12 11:13:38;;;;;;;0.10;0.10;;;;;;;13.51;100.00;98015.03;4998540;28;20534;-78
2022/11/12 11:16:52;;;;;;;0.10;0.10;;;;;;;13.60;100.00;98005.56;5000043;28;20050;-79
2022/11/12 11:19:56;;;;;;;0.10;0.10;;;;;;;13.98;100.00;98005.19;5001791;28;20160;-80
2022/11/12 11:23:17;;;;;;;0.10;0.10;;;;;;;14.58;100.00;98004.97;4999070;28;20281;-80
2022/11/12 11:26:53;;;;;;;0.20;0.20;;;;;;;16.42;99.77;97998.34;4995978;28;20082;-81
2022/11/12 11:30:14;;;;;;;0.20;0.20;;;;;;;18.97;80.77;97993.41;4993352;28;20603;-80
2022/11/12 11:33:40;;;;;;;0.13;0.13;;;;;;;19.06;81.66;97989.13;4995069;28;20038;-80
2022/11/12 11:36:52;;;;;;;0.10;0.10;;;;;;;17.51;88.05;97995.63;4996799;28;20044;-79
2022/11/12 11:40:24;;;;;;;0.10;0.10;;;;;;;16.59;93.40;97982.91;4999251;28;20038;-79
2022/11/12 11:43:31;;;;;;;0.13;0.13;;;;;;;16.78;90.95;97982.59;4996931;28;20105;-79
2022/11/12 11:46:56;;;;;;;0.17;0.17;;;;;;;17.17;91.14;97983.34;4998157;28;20044;-81
2022/11/12 11:50:06;;;;;;;0.10;0.10;;;;;;;17.18;88.66;97976.84;4985099;28;20062;-79
2022/11/12 11:53:25;;;;;;;0.10;0.10;;;;;;;16.55;94.18;97965.53;4994804;28;20053;-80
2022/11/12 11:56:40;;;;;;;0.10;0.10;;;;;;;16.59;94.63;97960.47;4999278;28;20042;-81
2022/11/12 11:59:48;;;;;;;0.10;0.10;;;;;;;16.66;94.13;97961.09;4999604;28;20034;-81
2022/11/12 12:03:05;;;;;;;0.20;0.20;;;;;;;16.80;93.62;97973.16;4988273;28;20513;-82
2022/11/12 12:06:31;;;;;;;0.10;0.10;;;;;;;16.56;96.05;97966.34;4293443;28;10000616;-82
2022/11/12 12:09:41;;;;;;;0.10;0.10;;;;;;;16.58;93.33;97958.84;4979219;28;20240;-79
2022/11/12 12:13:04;;;;;;;0.10;0.10;;;;;;;16.23;92.74;97959.97;4979840;28;20114;-80
2022/11/12 12:16:15;;;;;;;0.20;0.20;;;;;;;17.22;90.26;97957.19;4972028;28;20439;-81
2022/11/12 12:19:39;;;;;;;0.10;0.10;;;;;;;17.14;87.59;97954.13;4981383;28;20074;-81
2022/11/12 12:22:58;;;;;;;0.10;0.10;;;;;;;17.00;89.23;97969.91;4979200;28;20046;-79
2022/11/12 12:26:11;;;;;;;0.10;0.10;;;;;;;17.00;89.93;97956.38;4982781;28;20586;-80
2022/11/12 12:29:15;;;;;;;0.10;0.10;;;;;;;17.17;89.24;97959.00;4977985;28;20153;-79
2022/11/12 12:32:42;;;;;;;0.10;0.10;;;;;;;17.91;85.37;97953.78;4980014;28;20291;-81
2022/11/12 12:36:13;;;;;;;0.15;0.15;;;;;;;19.42;68.14;97953.94;4982874;28;20812;-80
2022/11/12 12:39:24;;;;;;;0.28;0.20;;;;;;;20.75;60.63;97939.16;4979641;28;20049;-79
2022/11/12 12:42:38;;;;;;;0.10;0.10;;;;;;;21.20;48.80;97940.03;4979570;28;20344;-82
2022/11/12 12:45:44;;;;;;;0.10;0.10;;;;;;;20.86;46.54;97940.78;4982077;28;20272;-80
2022/11/12 12:48:52;;;;;;;0.20;0.20;;;;;;;20.98;46.12;97942.34;4979211;28;20136;-81
2022/11/12 12:51:58;;;;;;;0.10;0.10;;;;;;;19.81;48.38;97946.13;4980488;28;20417;-79
2022/11/12 12:55:03;;;;;;;0.10;0.10;;;;;;;19.97;47.20;97942.31;4979147;28;20180;-81
2022/11/12 12:58:20;;;;;;;0.10;0.10;;;;;;;18.99;49.32;97941.63;4979604;28;20038;-82
2022/11/12 13:01:34;;;;;;;0.10;0.10;;;;;;;19.24;52.43;97935.47;4980116;28;20104;-80
2022/11/12 13:05:05;;;;;;;0.10;0.10;;;;;;;18.73;53.23;97932.59;4980710;28;20052;-79
2022/11/12 13:08:19;;;;;;;0.10;0.10;;;;;;;18.37;59.79;97926.97;4979842;28;20052;-81
2022/11/12 13:15:14;;;;;;;0.10;0.10;;;;;;;17.84;67.43;97909.84;4980620;28;20050;-79
2022/11/12 13:18:37;;;;;;;0.10;0.10;;;;;;;17.22;78.34;97915.78;4977103;28;20089;-78
2022/11/12 13:21:43;;;;;;;0.10;0.10;;;;;;;16.84;82.70;97914.84;4979844;28;20075;-80
2022/11/12 13:25:09;;;;;;;0.10;0.10;;;;;;;16.49;83.19;97914.38;4979168;28;20042;-80
2022/11/12 13:28:13;;;;;;;0.10;0.10;;;;;;;15.73;88.96;97917.66;4980524;28;20069;-81
2022/11/12 13:31:28;;;;;;;0.10;0.10;;;;;;;15.26;92.33;97920.63;4981129;28;20057;-81
2022/11/12 13:34:33;;;;;;;0.10;0.10;;;;;;;15.06;95.08;97914.84;4977820;28;20039;-80
2022/11/12 13:37:55;;;;;;;0.10;0.10;;;;;;;14.89;97.75;97917.50;4979926;28;20662;-82
2022/11/12 13:41:11;;;;;;;;;;;;;;;14.58;100.00;97921.47;4982508;28;20046;-78
2022/11/12 13:44:16;;;;;;;0.00;0.00;;;;;;;14.34;100.00;97914.47;4966747;28;20008;-79
2022/11/12 13:47:23;;;;;;;0.10;0.10;;;;;;;14.19;100.00;97918.47;4978315;28;20045;-80
2022/11/12 13:50:28;;;;;;;0.10;0.10;;;;;;;14.01;100.00;97920.47;4980816;28;20720;-81
2022/11/12 13:53:32;;;;;;;0.10;0.10;;;;;;;13.81;100.00;97921.66;4978243;28;20161;-79
2022/11/12 13:56:37;;;;;;;0.10;0.10;;;;;;;13.67;100.00;97925.59;4982229;28;20041;-79
2022/11/12 13:59:42;;;;;;;0.10;0.10;;;;;;;13.60;100.00;97927.59;4982478;28;20042;-81
2022/11/12 14:02:52;;;;;;;0.10;0.10;;;;;;;13.36;100.00;97932.09;4978749;28;20525;-81
2022/11/12 14:06:05;;;;;;;0.10;0.10;;;;;;;13.13;100.00;97932.00;4982153;28;20588;-80
2022/11/12 14:09:28;;;;;;;0.20;0.20;;;;;;;13.06;100.00;97927.53;4980238;28;20387;-81
2022/11/12 14:12:45;;;;;;;0.10;0.10;;;;;;;12.99;100.00;97936.75;4978188;28;20038;-81
2022/11/12 14:16:11;;;;;;;0.10;0.10;;;;;;;12.92;100.00;97927.94;4980417;28;20290;-81
2022/11/12 14:19:44;;;;;;;0.10;0.10;;;;;;;12.69;100.00;97924.13;4978620;28;20567;-80
2022/11/12 14:22:49;;;;;;;0.10;0.10;;;;;;;12.51;100.00;97932.19;4982395;28;20037;-78
2022/11/12 14:25:55;;;;;;;0.10;0.10;;;;;;;12.24;100.00;97929.00;4981107;28;20034;-81
2022/11/12 14:29:00;;;;;;;0.10;0.10;;;;;;;12.20;100.00;97917.06;4977790;28;20267;-80
2022/11/12 14:32:08;;;;;;;0.10;0.10;;;;;;;12.13;100.00;97919.00;4978584;28;20568;-79
2022/11/12 14:35:22;;;;;;;0.10;0.10;;;;;;;11.94;100.00;97918.16;4967755;28;20054;-80
2022/11/12 14:38:29;;;;;;;0.10;0.10;;;;;;;11.90;100.00;97908.91;4974651;28;20038;-80
2022/11/12 14:41:38;;;;;;;0.10;0.10;;;;;;;11.88;100.00;97909.13;4980306;28;20442;-80
2022/11/12 14:44:42;;;;;;;0.10;0.10;;;;;;;11.84;100.00;97907.97;4979031;28;20269;-80
2022/11/12 14:47:52;;;;;;;0.10;0.10;;;;;;;11.83;100.00;97900.09;4977254;28;20108;-77
2022/11/12 14:51:04;;;;;;;0.10;0.10;;;;;;;11.94;100.00;97913.63;4981830;28;20499;-80
2022/11/12 14:54:17;;;;;;;0.08;0.08;;;;;;;11.96;100.00;97911.53;4976841;28;20042;-80
2022/11/12 14:57:28;;;;;;;0.10;0.10;;;;;;;12.03;100.00;97916.00;4979505;28;20637;-78
2022/11/12 15:00:40;;;;;;;0.10;0.10;;;;;;;11.96;100.00;97908.03;4977953;28;20708;-78
2022/11/12 15:03:44;;;;;;;0.10;0.10;;;;;;;11.95;100.00;97901.03;4978085;28;20503;-79
2022/11/12 15:06:57;;;;;;;0.10;0.10;;;;;;;11.62;100.00;97898.63;4968969;28;20043;-79
2022/11/12 15:10:27;;;;;;;0.10;0.10;;;;;;;11.29;100.00;97910.47;4981071;28;20180;-78
2022/11/12 15:13:38;;;;;;;0.10;0.10;;;;;;;10.95;100.00;97898.31;4978716;28;20779;-78
2022/11/12 15:16:43;;;;;;;0.10;0.10;;;;;;;10.75;100.00;97897.63;4980268;28;20105;-77
2022/11/12 15:19:47;;;;;;;0.10;0.10;;;;;;;10.47;100.00;97897.97;4979133;28;20539;-78
2022/11/12 15:22:52;;;;;;;0.10;0.10;;;;;;;10.27;100.00;97893.53;4978820;28;20078;-80
2022/11/12 15:25:59;;;;;;;0.10;0.10;;;;;;;10.26;100.00;97885.69;4980948;28;20392;-76